Norwegian Sea — C6DM2 — position and weather

sailwx.info

Track history (hours):
 
Tides and Currents Weather Stations Pressure Air Temp Water Temp Dewpoint Dewpoint Depression Visibility Wind Speed Wind Dir Waves Ship Positions

Norwegian Sea

Operator: Norwegian Cruise Line

Last reported at 2017-Jul-22 12:28 UTC. Time now 2017-Jul-22 12:40 UTC.
Position N 05°25' E 100°21'.

Length 216 m; draft 7.2 m.

Type: Passenger vessel. MMSI: 308188000.

Date/timePositionNaut miles runAvg speedWind from/ knotsBaromVisibWave heightAir tempDewpointWater temp
2017-Jul-22 12:28N 05°25' E 100°21'3 6.3
2017-Jul-22 12:00N 05°24' E 100°18'3126.9 230 / 131009.0 2.2 30.026.0
2017-Jul-22 11:58N 05°25' E 100°21'0 0.0
2017-Jul-22 06:46N 05°25' E 100°21'3 3.9
2017-Jul-22 06:00N 05°24' E 100°18'3 4.1 220 / 191010.0 1.1 33.027.8
2017-Jul-22 05:16N 05°25' E 100°21'0 0.0
2017-Jul-22 04:18N 05°25' E 100°21'0 0.0
2017-Jul-22 03:48N 05°25' E 100°21'0 0.0
2017-Jul-22 03:18N 05°25' E 100°21'0 0.0
2017-Jul-22 03:00N 05°25' E 100°21'1 2.2
2017-Jul-22 02:28N 05°26' E 100°21'611.9
2017-Jul-22 02:00N 05°31' E 100°18'611.8
2017-Jul-22 01:29N 05°35' E 100°13'612.4
2017-Jul-22 01:00N 05°36' E 100°08'2 4.6
2017-Jul-22 00:30N 05°36' E 100°05'815.3
2017-Jul-22 00:00N 05°30' E 100°00'717.1 120 / 81008.0 5.4 29.026.330.0
2017-Jul-21 23:35N 05°35' E 100°05'1 1.3
2017-Jul-21 23:12N 05°34' E 100°05'1 0.3
2017-Jul-21 18:38N 05°33' E 100°05'6 9.0
2017-Jul-21 18:00N 05°30' E 100°00'8 3.0 310 / 8 29.026.331.0
2017-Jul-21 15:24N 05°36' E 100°04'2 4.4
2017-Jul-21 15:00N 05°37' E 100°06'6 7.7
2017-Jul-21 14:13N 05°36' E 100°12'312.0
2017-Jul-21 14:00N 05°34' E 100°14'611.6
2017-Jul-21 13:30N 05°31' E 100°19'611.1
2017-Jul-21 13:00N 05°26' E 100°21'0 0.9
2017-Jul-21 12:30N 05°25' E 100°21'0 0.0
2017-Jul-21 12:00N 05°25' E 100°21'3340.7
2017-Jul-21 12:00N 05°24' E 100°18'3 6.2 210 / 51009.0 2.2 31.029.7
2017-Jul-21 11:30N 05°25' E 100°21'0 0.0
2017-Jul-21 11:00N 05°25' E 100°21'0 0.0
2017-Jul-21 10:30N 05°25' E 100°21'0 0.0
2017-Jul-21 10:00N 05°25' E 100°21'0 0.0
2017-Jul-21 09:30N 05°25' E 100°21'0 0.0
2017-Jul-21 09:00N 05°25' E 100°21'0 0.0
2017-Jul-21 08:30N 05°25' E 100°21'0 0.0
2017-Jul-21 08:00N 05°25' E 100°21'0 0.0
2017-Jul-21 07:26N 05°25' E 100°21'0 0.0
2017-Jul-21 06:56N 05°25' E 100°21'0 0.0
2017-Jul-21 06:26N 05°25' E 100°21'3 6.9
2017-Jul-21 06:00N 05°24' E 100°18'351.9 220 / 81009.0 5.4 32.029.430.0
2017-Jul-21 05:56N 05°25' E 100°21'0 0.0
2017-Jul-21 05:27N 05°25' E 100°21'0 0.0
2017-Jul-21 04:55N 05°25' E 100°21'0 0.0
2017-Jul-21 04:25N 05°25' E 100°21'0 0.0
2017-Jul-21 03:56N 05°25' E 100°21'1 1.3
2017-Jul-21 03:30N 05°26' E 100°21'612.0
2017-Jul-21 03:01N 05°31' E 100°19'611.3
2017-Jul-21 02:31N 05°35' E 100°14'611.3
2017-Jul-21 02:00N 05°37' E 100°09'1411.7
2017-Jul-21 00:49N 05°45' E 099°57'1618.8
2017-Jul-21 00:00N 05°48' E 099°42'7212.0 230 / 71008.0 5.4 29.026.330.0
2017-Jul-20 18:00N 06°42' E 098°54'7212.1 280 / 14 28.028.031.0
2017-Jul-20 12:00N 07°48' E 098°24'0 0.0 290 / 141008.0 2.2 29.027.7
2017-Jul-20 06:00N 07°48' E 098°24'38 6.3 280 / 121009.0 5.4 32.029.430.0
2017-Jul-20 00:00N 07°12' E 098°36'8113.6 280 / 161008.0 5.4 29.026.329.0
2017-Jul-19 18:00N 06°06' E 099°24'4815.9 340 / 8 29.029.031.0
2017-Jul-19 15:00N 05°40' E 100°04'1113.3
2017-Jul-19 14:10N 05°35' E 100°14'212.0
2017-Jul-19 14:00N 05°34' E 100°15'611.4
2017-Jul-19 13:30N 05°30' E 100°20'5 9.6
2017-Jul-19 13:00N 05°25' E 100°21'0 0.0
2017-Jul-19 12:25N 05°25' E 100°21'3 7.2
2017-Jul-19 12:00N 05°24' E 100°18'337.9 170 / 51008.0 2.2 30.028.7
2017-Jul-19 11:55N 05°25' E 100°21'0 0.0
2017-Jul-19 11:25N 05°25' E 100°21'0 0.0
2017-Jul-19 10:55N 05°25' E 100°21'0 0.0
2017-Jul-19 10:25N 05°25' E 100°21'0 0.0
2017-Jul-19 09:49N 05°25' E 100°21'0 0.0
2017-Jul-19 09:25N 05°25' E 100°21'0 0.0
2017-Jul-19 08:55N 05°25' E 100°21'0 0.0
2017-Jul-19 08:25N 05°25' E 100°21'0 0.0
2017-Jul-19 07:55N 05°25' E 100°21'0 0.0
2017-Jul-19 07:25N 05°25' E 100°21'0 0.0
2017-Jul-19 06:55N 05°25' E 100°21'0 0.0
2017-Jul-19 06:25N 05°25' E 100°21'3 7.2
2017-Jul-19 06:00N 05°24' E 100°18'338.1 210 / 101009.0 5.4 32.029.430.0
2017-Jul-19 05:55N 05°25' E 100°21'0 0.0
2017-Jul-19 05:29N 05°25' E 100°21'0 0.0
2017-Jul-19 04:57N 05°25' E 100°21'0 0.0
2017-Jul-19 04:27N 05°25' E 100°21'0 0.0
2017-Jul-19 04:00N 05°25' E 100°21'1 1.9
2017-Jul-19 03:30N 05°26' E 100°21'611.2
2017-Jul-19 03:00N 05°31' E 100°19'611.6
2017-Jul-19 02:30N 05°35' E 100°14'510.4
2017-Jul-19 02:00N 05°37' E 100°09'4 8.6
2017-Jul-19 01:28N 05°40' E 100°06'11 8.2
2017-Jul-19 00:09N 05°46' E 099°56'1 8.5
2017-Jul-18 23:59N 05°46' E 099°55'7 7.3
2017-Jul-18 23:00N 05°48' E 099°48'6412.7 210 / 101009.0 5.4 28.026.728.0
2017-Jul-18 18:00N 06°30' E 099°00'6611.0 200 / 5 29.029.031.0
2017-Jul-18 12:00N 07°36' E 098°54'19 3.2 260 / 41009.0 5.4 28.028.029.0
2017-Jul-18 06:00N 07°54' E 098°48'8 1.4 180 / 51008.0 5.4 32.029.430.0
2017-Jul-18 00:00N 07°48' E 098°42'17 2.8 180 / 61008.0 5.4 30.027.430.0
2017-Jul-17 18:00N 07°36' E 098°30'13 1.1 230 / 14 29.029.031.0
2017-Jul-17 06:00N 07°48' E 098°24'38 6.3 260 / 101008.0 5.4 32.029.430.0
2017-Jul-17 00:00N 07°12' E 098°36'56 9.4 220 / 111008.0 5.4 28.025.330.0
2017-Jul-16 18:00N 06°24' E 099°06'6311.7 210 / 9 29.029.031.0
2017-Jul-16 12:37N 05°46' E 099°56'6 8.8
2017-Jul-16 12:00N 05°42' E 100°00'529.7 180 / 121007.0 5.4 29.026.329.0
2017-Jul-16 11:50N 05°40' E 100°04'712.3
2017-Jul-16 11:18N 05°37' E 100°10'412.0
2017-Jul-16 11:00N 05°35' E 100°13'611.9
2017-Jul-16 10:30N 05°32' E 100°18'611.2
2017-Jul-16 10:01N 05°27' E 100°21'4 1.0
2017-Jul-16 06:00N 05°24' E 100°18'3 1.5 170 / 121008.0 5.4 32.029.430.0
2017-Jul-16 03:57N 05°25' E 100°21'0 0.0
2017-Jul-16 03:27N 05°25' E 100°21'0 0.0
2017-Jul-16 02:57N 05°25' E 100°21'0 0.0
2017-Jul-16 02:27N 05°25' E 100°21'0 0.8
2017-Jul-16 02:00N 05°25' E 100°21'611.3
2017-Jul-16 01:30N 05°31' E 100°19'611.3
2017-Jul-16 01:00N 05°34' E 100°15'2 3.1
2017-Jul-16 00:28N 05°35' E 100°13'3 6.8
2017-Jul-16 00:00N 05°36' E 100°10'4873.8
2017-Jul-16 00:00N 05°36' E 100°06'3 6.3 200 / 81008.0 5.4 28.025.330.0
2017-Jul-15 23:30N 05°37' E 100°09'0 0.6
2017-Jul-15 22:59N 05°37' E 100°09'0 0.6
2017-Jul-15 22:19N 05°37' E 100°08'0 0.6
2017-Jul-15 21:32N 05°38' E 100°08'0 0.7
2017-Jul-15 21:22N 05°38' E 100°08'0 0.7
2017-Jul-15 20:48N 05°38' E 100°07'0 0.6
2017-Jul-15 20:29N 05°38' E 100°07'0 0.7
2017-Jul-15 20:00N 05°38' E 100°07'0 0.9
2017-Jul-15 19:26N 05°38' E 100°06'1 0.9
2017-Jul-15 18:32N 05°38' E 100°06'0 1.0
2017-Jul-15 18:28N 05°38' E 100°05'0 0.9
2017-Jul-15 18:00N 05°37' E 100°05'1 1.0
2017-Jul-15 17:29N 05°37' E 100°05'0 1.0
2017-Jul-15 17:00N 05°37' E 100°05'0 1.0
2017-Jul-15 16:30N 05°36' E 100°05'4 2.9
2017-Jul-15 15:04N 05°39' E 100°08'2 6.9
2017-Jul-15 14:50N 05°38' E 100°09'7 8.7
2017-Jul-15 14:00N 05°34' E 100°15'612.4
2017-Jul-15 13:30N 05°30' E 100°20'510.6
2017-Jul-15 13:00N 05°25' E 100°21'3 3.1
2017-Jul-15 12:00N 05°24' E 100°18'320.5 210 / 61007.0 5.4 28.026.730.0
2017-Jul-15 11:51N 05°25' E 100°21'0 0.0
2017-Jul-15 11:27N 05°25' E 100°21'0 0.0
2017-Jul-15 10:57N 05°25' E 100°21'0 0.0
2017-Jul-15 10:09N 05°25' E 100°21'0 0.0
2017-Jul-15 09:57N 05°25' E 100°21'0 0.0
2017-Jul-15 08:03N 05°25' E 100°21'0 0.0
2017-Jul-15 07:33N 05°25' E 100°21'0 0.0
2017-Jul-15 07:15N 05°25' E 100°21'0 0.0
2017-Jul-15 06:57N 05°25' E 100°21'0 0.0
2017-Jul-15 06:27N 05°25' E 100°21'3 6.6
2017-Jul-15 06:00N 05°24' E 100°18'320.5 210 / 91009.0 5.4 32.029.430.0
2017-Jul-15 05:51N 05°25' E 100°21'0 0.0
2017-Jul-15 05:27N 05°25' E 100°21'0 0.0
2017-Jul-15 04:59N 05°25' E 100°21'0 0.0
2017-Jul-15 04:29N 05°25' E 100°21'0 0.0
2017-Jul-15 03:55N 05°25' E 100°21'0 0.0
2017-Jul-15 03:30N 05°25' E 100°21'0 0.0
2017-Jul-15 03:00N 05°25' E 100°21'2 3.0
2017-Jul-15 02:29N 05°27' E 100°21'510.7
2017-Jul-15 02:00N 05°31' E 100°19'611.3
2017-Jul-15 01:30N 05°35' E 100°14'5 9.2
2017-Jul-15 01:00N 05°34' E 100°09'6 5.9
2017-Jul-15 00:03N 05°33' E 100°04'0 0.4
2017-Jul-15 00:00N 05°33' E 100°04'5321.3
2017-Jul-15 00:00N 05°30' E 100°00'5 5.5 200 / 101009.0 5.4 28.025.330.0
2017-Jul-14 23:03N 05°33' E 100°04'0 0.5
2017-Jul-14 22:53N 05°33' E 100°04'3 1.1
2017-Jul-14 20:29N 05°36' E 100°05'1 1.2
2017-Jul-14 19:55N 05°36' E 100°06'0 1.0
2017-Jul-14 19:30N 05°37' E 100°06'0 0.4
2017-Jul-14 18:41N 05°37' E 100°06'0 0.6
2017-Jul-14 18:29N 05°37' E 100°06'0 0.6
2017-Jul-14 18:00N 05°37' E 100°05'5750.1
2017-Jul-14 18:00N 05°36' E 100°00'510.3 29.029.031.0
2017-Jul-14 17:30N 05°37' E 100°05'0 0.8
2017-Jul-14 16:58N 05°37' E 100°05'0 0.7
2017-Jul-14 16:30N 05°37' E 100°05'0 0.7
2017-Jul-14 16:00N 05°36' E 100°04'0 1.0
2017-Jul-14 15:30N 05°36' E 100°05'3 5.7
2017-Jul-14 14:57N 05°37' E 100°08'510.2
2017-Jul-14 14:25N 05°35' E 100°13'512.5
2017-Jul-14 14:00N 05°32' E 100°17'612.4
2017-Jul-14 13:29N 05°27' E 100°21'2 3.9
2017-Jul-14 13:00N 05°25' E 100°21'3 3.0
2017-Jul-14 12:00N 05°24' E 100°18'3 0.6 290 / 51009.0 5.4 28.026.730.0
2017-Jul-14 07:04N 05°25' E 100°21'0 0.0
2017-Jul-14 06:58N 05°25' E 100°21'0 0.0
2017-Jul-14 06:28N 05°25' E 100°21'3 6.3
2017-Jul-14 06:00N 05°24' E 100°18'3121.2 200 / 61009.0 5.4 32.029.430.0
2017-Jul-14 05:58N 05°25' E 100°21'0 0.0
2017-Jul-14 05:23N 05°25' E 100°21'0 0.0
2017-Jul-14 04:57N 05°25' E 100°21'0 0.0
2017-Jul-14 04:12N 05°25' E 100°21'0 0.0
2017-Jul-14 03:54N 05°25' E 100°21'1 3.5
2017-Jul-14 03:30N 05°26' E 100°21'510.5
2017-Jul-14 03:01N 05°31' E 100°19'5 9.8
2017-Jul-14 02:31N 05°34' E 100°15'611.4
2017-Jul-14 01:58N 05°37' E 100°09'511.7
2017-Jul-14 01:30N 05°40' E 100°05'611.6
2017-Jul-14 01:00N 05°43' E 099°60'1818.2
2017-Jul-14 00:00N 05°48' E 099°42'6811.3 120 / 161009.0 5.4 28.025.329.0
2017-Jul-13 18:00N 06°36' E 098°54'78 6.5 240 / 20 27.027.031.0
2017-Jul-13 06:00N 07°48' E 098°24'38 6.3 190 / 101008.0 5.4 31.028.430.0
2017-Jul-13 00:00N 07°12' E 098°36'8113.6 160 / 101008.0 5.4 29.026.330.0
2017-Jul-12 18:00N 06°06' E 099°24'4615.2 150 / 10 29.029.031.0
2017-Jul-12 15:00N 05°42' E 100°03'1312.6
2017-Jul-12 14:00N 05°35' E 100°13'612.7
2017-Jul-12 13:30N 05°31' E 100°18'612.4
2017-Jul-12 13:00N 05°26' E 100°21'  
Track history (hours):
 
Tides and Currents Weather Stations Pressure Air Temp Water Temp Dewpoint Dewpoint Depression Visibility Wind Speed Wind Dir Waves Ship Positions

Norwegian Sea

Operator: Norwegian Cruise Line

Last reported at 2017-Jul-22 12:28 UTC. Time now 2017-Jul-22 12:40 UTC.
Position N 05°25' E 100°21'.

Length 216 m; draft 7.2 m.

Type: Passenger vessel. MMSI: 308188000.

Date/timePositionNaut miles runAvg speedWind from/ knotsBaromVisibWave heightAir tempDewpointWater temp
2017-Jul-22 12:28N 05°25' E 100°21'3 6.3
2017-Jul-22 12:00N 05°24' E 100°18'3126.9 230 / 131009.0 2.2 30.026.0
2017-Jul-22 11:58N 05°25' E 100°21'0 0.0
2017-Jul-22 06:46N 05°25' E 100°21'3 3.9
2017-Jul-22 06:00N 05°24' E 100°18'3 4.1 220 / 191010.0 1.1 33.027.8
2017-Jul-22 05:16N 05°25' E 100°21'0 0.0
2017-Jul-22 04:18N 05°25' E 100°21'0 0.0
2017-Jul-22 03:48N 05°25' E 100°21'0 0.0
2017-Jul-22 03:18N 05°25' E 100°21'0 0.0
2017-Jul-22 03:00N 05°25' E 100°21'1 2.2
2017-Jul-22 02:28N 05°26' E 100°21'611.9
2017-Jul-22 02:00N 05°31' E 100°18'611.8
2017-Jul-22 01:29N 05°35' E 100°13'612.4
2017-Jul-22 01:00N 05°36' E 100°08'2 4.6
2017-Jul-22 00:30N 05°36' E 100°05'815.3
2017-Jul-22 00:00N 05°30' E 100°00'717.1 120 / 81008.0 5.4 29.026.330.0
2017-Jul-21 23:35N 05°35' E 100°05'1 1.3
2017-Jul-21 23:12N 05°34' E 100°05'1 0.3
2017-Jul-21 18:38N 05°33' E 100°05'6 9.0
2017-Jul-21 18:00N 05°30' E 100°00'8 3.0 310 / 8 29.026.331.0
2017-Jul-21 15:24N 05°36' E 100°04'2 4.4
2017-Jul-21 15:00N 05°37' E 100°06'6 7.7
2017-Jul-21 14:13N 05°36' E 100°12'312.0
2017-Jul-21 14:00N 05°34' E 100°14'611.6
2017-Jul-21 13:30N 05°31' E 100°19'611.1
2017-Jul-21 13:00N 05°26' E 100°21'0 0.9
2017-Jul-21 12:30N 05°25' E 100°21'0 0.0
2017-Jul-21 12:00N 05°25' E 100°21'3340.7
2017-Jul-21 12:00N 05°24' E 100°18'3 6.2 210 / 51009.0 2.2 31.029.7
2017-Jul-21 11:30N 05°25' E 100°21'0 0.0
2017-Jul-21 11:00N 05°25' E 100°21'0 0.0
2017-Jul-21 10:30N 05°25' E 100°21'0 0.0
2017-Jul-21 10:00N 05°25' E 100°21'0 0.0
2017-Jul-21 09:30N 05°25' E 100°21'0 0.0
2017-Jul-21 09:00N 05°25' E 100°21'0 0.0
2017-Jul-21 08:30N 05°25' E 100°21'0 0.0
2017-Jul-21 08:00N 05°25' E 100°21'0 0.0
2017-Jul-21 07:26N 05°25' E 100°21'0 0.0
2017-Jul-21 06:56N 05°25' E 100°21'0 0.0
2017-Jul-21 06:26N 05°25' E 100°21'3 6.9
2017-Jul-21 06:00N 05°24' E 100°18'351.9 220 / 81009.0 5.4 32.029.430.0
2017-Jul-21 05:56N 05°25' E 100°21'0 0.0
2017-Jul-21 05:27N 05°25' E 100°21'0 0.0
2017-Jul-21 04:55N 05°25' E 100°21'0 0.0
2017-Jul-21 04:25N 05°25' E 100°21'0 0.0
2017-Jul-21 03:56N 05°25' E 100°21'1 1.3
2017-Jul-21 03:30N 05°26' E 100°21'612.0
2017-Jul-21 03:01N 05°31' E 100°19'611.3
2017-Jul-21 02:31N 05°35' E 100°14'611.3
2017-Jul-21 02:00N 05°37' E 100°09'1411.7
2017-Jul-21 00:49N 05°45' E 099°57'1618.8
2017-Jul-21 00:00N 05°48' E 099°42'7212.0 230 / 71008.0 5.4 29.026.330.0
2017-Jul-20 18:00N 06°42' E 098°54'7212.1 280 / 14 28.028.031.0
2017-Jul-20 12:00N 07°48' E 098°24'0 0.0 290 / 141008.0 2.2 29.027.7
2017-Jul-20 06:00N 07°48' E 098°24'38 6.3 280 / 121009.0 5.4 32.029.430.0
2017-Jul-20 00:00N 07°12' E 098°36'8113.6 280 / 161008.0 5.4 29.026.329.0
2017-Jul-19 18:00N 06°06' E 099°24'4815.9 340 / 8 29.029.031.0
2017-Jul-19 15:00N 05°40' E 100°04'1113.3
2017-Jul-19 14:10N 05°35' E 100°14'212.0
2017-Jul-19 14:00N 05°34' E 100°15'611.4
2017-Jul-19 13:30N 05°30' E 100°20'5 9.6
2017-Jul-19 13:00N 05°25' E 100°21'0 0.0
2017-Jul-19 12:25N 05°25' E 100°21'3 7.2
2017-Jul-19 12:00N 05°24' E 100°18'337.9 170 / 51008.0 2.2 30.028.7
2017-Jul-19 11:55N 05°25' E 100°21'0 0.0
2017-Jul-19 11:25N 05°25' E 100°21'0 0.0
2017-Jul-19 10:55N 05°25' E 100°21'0 0.0
2017-Jul-19 10:25N 05°25' E 100°21'0 0.0
2017-Jul-19 09:49N 05°25' E 100°21'0 0.0
2017-Jul-19 09:25N 05°25' E 100°21'0 0.0
2017-Jul-19 08:55N 05°25' E 100°21'0 0.0
2017-Jul-19 08:25N 05°25' E 100°21'0 0.0
2017-Jul-19 07:55N 05°25' E 100°21'0 0.0
2017-Jul-19 07:25N 05°25' E 100°21'0 0.0
2017-Jul-19 06:55N 05°25' E 100°21'0 0.0
2017-Jul-19 06:25N 05°25' E 100°21'3 7.2
2017-Jul-19 06:00N 05°24' E 100°18'338.1 210 / 101009.0 5.4 32.029.430.0
2017-Jul-19 05:55N 05°25' E 100°21'0 0.0
2017-Jul-19 05:29N 05°25' E 100°21'0 0.0
2017-Jul-19 04:57N 05°25' E 100°21'0 0.0
2017-Jul-19 04:27N 05°25' E 100°21'0 0.0
2017-Jul-19 04:00N 05°25' E 100°21'1 1.9
2017-Jul-19 03:30N 05°26' E 100°21'611.2
2017-Jul-19 03:00N 05°31' E 100°19'611.6
2017-Jul-19 02:30N 05°35' E 100°14'510.4
2017-Jul-19 02:00N 05°37' E 100°09'4 8.6
2017-Jul-19 01:28N 05°40' E 100°06'11 8.2
2017-Jul-19 00:09N 05°46' E 099°56'1 8.5
2017-Jul-18 23:59N 05°46' E 099°55'7 7.3
2017-Jul-18 23:00N 05°48' E 099°48'6412.7 210 / 101009.0 5.4 28.026.728.0
2017-Jul-18 18:00N 06°30' E 099°00'6611.0 200 / 5 29.029.031.0
2017-Jul-18 12:00N 07°36' E 098°54'19 3.2 260 / 41009.0 5.4 28.028.029.0
2017-Jul-18 06:00N 07°54' E 098°48'8 1.4 180 / 51008.0 5.4 32.029.430.0
2017-Jul-18 00:00N 07°48' E 098°42'17 2.8 180 / 61008.0 5.4 30.027.430.0
2017-Jul-17 18:00N 07°36' E 098°30'13 1.1 230 / 14 29.029.031.0
2017-Jul-17 06:00N 07°48' E 098°24'38 6.3 260 / 101008.0 5.4 32.029.430.0
2017-Jul-17 00:00N 07°12' E 098°36'56 9.4 220 / 111008.0 5.4 28.025.330.0
2017-Jul-16 18:00N 06°24' E 099°06'6311.7 210 / 9 29.029.031.0
2017-Jul-16 12:37N 05°46' E 099°56'6 8.8
2017-Jul-16 12:00N 05°42' E 100°00'529.7 180 / 121007.0 5.4 29.026.329.0
2017-Jul-16 11:50N 05°40' E 100°04'712.3
2017-Jul-16 11:18N 05°37' E 100°10'412.0
2017-Jul-16 11:00N 05°35' E 100°13'611.9
2017-Jul-16 10:30N 05°32' E 100°18'611.2
2017-Jul-16 10:01N 05°27' E 100°21'4 1.0
2017-Jul-16 06:00N 05°24' E 100°18'3 1.5 170 / 121008.0 5.4 32.029.430.0
2017-Jul-16 03:57N 05°25' E 100°21'0 0.0
2017-Jul-16 03:27N 05°25' E 100°21'0 0.0
2017-Jul-16 02:57N 05°25' E 100°21'0 0.0
2017-Jul-16 02:27N 05°25' E 100°21'0 0.8
2017-Jul-16 02:00N 05°25' E 100°21'611.3
2017-Jul-16 01:30N 05°31' E 100°19'611.3
2017-Jul-16 01:00N 05°34' E 100°15'2 3.1
2017-Jul-16 00:28N 05°35' E 100°13'3 6.8
2017-Jul-16 00:00N 05°36' E 100°10'4873.8
2017-Jul-16 00:00N 05°36' E 100°06'3 6.3 200 / 81008.0 5.4 28.025.330.0
2017-Jul-15 23:30N 05°37' E 100°09'0 0.6
2017-Jul-15 22:59N 05°37' E 100°09'0 0.6
2017-Jul-15 22:19N 05°37' E 100°08'0 0.6
2017-Jul-15 21:32N 05°38' E 100°08'0 0.7
2017-Jul-15 21:22N 05°38' E 100°08'0 0.7
2017-Jul-15 20:48N 05°38' E 100°07'0 0.6
2017-Jul-15 20:29N 05°38' E 100°07'0 0.7
2017-Jul-15 20:00N 05°38' E 100°07'0 0.9
2017-Jul-15 19:26N 05°38' E 100°06'1 0.9
2017-Jul-15 18:32N 05°38' E 100°06'0 1.0
2017-Jul-15 18:28N 05°38' E 100°05'0 0.9
2017-Jul-15 18:00N 05°37' E 100°05'1 1.0
2017-Jul-15 17:29N 05°37' E 100°05'0 1.0
2017-Jul-15 17:00N 05°37' E 100°05'0 1.0
2017-Jul-15 16:30N 05°36' E 100°05'4 2.9
2017-Jul-15 15:04N 05°39' E 100°08'2 6.9
2017-Jul-15 14:50N 05°38' E 100°09'7 8.7
2017-Jul-15 14:00N 05°34' E 100°15'612.4
2017-Jul-15 13:30N 05°30' E 100°20'510.6
2017-Jul-15 13:00N 05°25' E 100°21'3 3.1
2017-Jul-15 12:00N 05°24' E 100°18'320.5 210 / 61007.0 5.4 28.026.730.0
2017-Jul-15 11:51N 05°25' E 100°21'0 0.0
2017-Jul-15 11:27N 05°25' E 100°21'0 0.0
2017-Jul-15 10:57N 05°25' E 100°21'0 0.0
2017-Jul-15 10:09N 05°25' E 100°21'0 0.0
2017-Jul-15 09:57N 05°25' E 100°21'0 0.0
2017-Jul-15 08:03N 05°25' E 100°21'0 0.0
2017-Jul-15 07:33N 05°25' E 100°21'0 0.0
2017-Jul-15 07:15N 05°25' E 100°21'0 0.0
2017-Jul-15 06:57N 05°25' E 100°21'0 0.0
2017-Jul-15 06:27N 05°25' E 100°21'3 6.6
2017-Jul-15 06:00N 05°24' E 100°18'320.5 210 / 91009.0 5.4 32.029.430.0
2017-Jul-15 05:51N 05°25' E 100°21'0 0.0
2017-Jul-15 05:27N 05°25' E 100°21'0 0.0
2017-Jul-15 04:59N 05°25' E 100°21'0 0.0
2017-Jul-15 04:29N 05°25' E 100°21'0 0.0
2017-Jul-15 03:55N 05°25' E 100°21'0 0.0
2017-Jul-15 03:30N 05°25' E 100°21'0 0.0
2017-Jul-15 03:00N 05°25' E 100°21'2 3.0
2017-Jul-15 02:29N 05°27' E 100°21'510.7
2017-Jul-15 02:00N 05°31' E 100°19'611.3
2017-Jul-15 01:30N 05°35' E 100°14'5 9.2
2017-Jul-15 01:00N 05°34' E 100°09'6 5.9
2017-Jul-15 00:03N 05°33' E 100°04'0 0.4
2017-Jul-15 00:00N 05°33' E 100°04'5321.3
2017-Jul-15 00:00N 05°30' E 100°00'5 5.5 200 / 101009.0 5.4 28.025.330.0
2017-Jul-14 23:03N 05°33' E 100°04'0 0.5
2017-Jul-14 22:53N 05°33' E 100°04'3 1.1
2017-Jul-14 20:29N 05°36' E 100°05'1 1.2
2017-Jul-14 19:55N 05°36' E 100°06'0 1.0
2017-Jul-14 19:30N 05°37' E 100°06'0 0.4
2017-Jul-14 18:41N 05°37' E 100°06'0 0.6
2017-Jul-14 18:29N 05°37' E 100°06'0 0.6
2017-Jul-14 18:00N 05°37' E 100°05'5750.1
2017-Jul-14 18:00N 05°36' E 100°00'510.3 29.029.031.0
2017-Jul-14 17:30N 05°37' E 100°05'0 0.8
2017-Jul-14 16:58N 05°37' E 100°05'0 0.7
2017-Jul-14 16:30N 05°37' E 100°05'0 0.7
2017-Jul-14 16:00N 05°36' E 100°04'0 1.0
2017-Jul-14 15:30N 05°36' E 100°05'3 5.7
2017-Jul-14 14:57N 05°37' E 100°08'510.2
2017-Jul-14 14:25N 05°35' E 100°13'512.5
2017-Jul-14 14:00N 05°32' E 100°17'612.4
2017-Jul-14 13:29N 05°27' E 100°21'2 3.9
2017-Jul-14 13:00N 05°25' E 100°21'3 3.0
2017-Jul-14 12:00N 05°24' E 100°18'3 0.6 290 / 51009.0 5.4 28.026.730.0
2017-Jul-14 07:04N 05°25' E 100°21'0 0.0
2017-Jul-14 06:58N 05°25' E 100°21'0 0.0
2017-Jul-14 06:28N 05°25' E 100°21'3 6.3
2017-Jul-14 06:00N 05°24' E 100°18'3121.2 200 / 61009.0 5.4 32.029.430.0
2017-Jul-14 05:58N 05°25' E 100°21'0 0.0
2017-Jul-14 05:23N 05°25' E 100°21'0 0.0
2017-Jul-14 04:57N 05°25' E 100°21'0 0.0
2017-Jul-14 04:12N 05°25' E 100°21'0 0.0
2017-Jul-14 03:54N 05°25' E 100°21'1 3.5
2017-Jul-14 03:30N 05°26' E 100°21'510.5
2017-Jul-14 03:01N 05°31' E 100°19'5 9.8
2017-Jul-14 02:31N 05°34' E 100°15'611.4
2017-Jul-14 01:58N 05°37' E 100°09'511.7
2017-Jul-14 01:30N 05°40' E 100°05'611.6
2017-Jul-14 01:00N 05°43' E 099°60'1818.2
2017-Jul-14 00:00N 05°48' E 099°42'6811.3 120 / 161009.0 5.4 28.025.329.0
2017-Jul-13 18:00N 06°36' E 098°54'78 6.5 240 / 20 27.027.031.0
2017-Jul-13 06:00N 07°48' E 098°24'38 6.3 190 / 101008.0 5.4 31.028.430.0
2017-Jul-13 00:00N 07°12' E 098°36'8113.6 160 / 101008.0 5.4 29.026.330.0
2017-Jul-12 18:00N 06°06' E 099°24'4615.2 150 / 10 29.029.031.0
2017-Jul-12 15:00N 05°42' E 100°03'1312.6
2017-Jul-12 14:00N 05°35' E 100°13'612.7
2017-Jul-12 13:30N 05°31' E 100°18'612.4
2017-Jul-12 13:00N 05°26' E 100°21'  

Dump ship's entire track history